Time;durP1;ratioP1;P1;durP2;ratioP2;P2;SDS_P1;SDS_P2;PMS_P1;PMS_P2;Temp;Humidity;BMP_temperature;BMP_pressure;BME280_temperature;BME280_humidity;BME280_pressure;Samples;Min_cycle;Max_cycle;Signal;HPM_P1;HPM_P2
2023/02/01 00:01:51;;;;;;;;;;;5.80;1.00;;;;;;5001362;28;19913;-80
2023/02/01 00:04:17;;;;;;;;;;;5.80;1.00;;;;;;5010363;28;19909;-80
2023/02/01 00:06:43;;;;;;;;;;;5.90;1.00;;;;;;5009843;28;19960;-81
2023/02/01 00:09:09;;;;;;;;;;;5.90;1.00;;;;;;5011839;28;19925;-81
2023/02/01 00:11:35;;;;;;;;;;;5.80;1.00;;;;;;5013727;28;19924;-81
2023/02/01 00:14:01;;;;;;;;;;;5.80;1.00;;;;;;5009266;28;19910;-80
2023/02/01 00:16:28;;;;;;;;;;;5.80;1.00;;;;;;5013814;28;19905;-81
2023/02/01 00:19:02;;;;;;;;;;;5.70;1.00;;;;;;5009898;28;20079;-77
2023/02/01 00:21:28;;;;;;;;;;;5.70;1.00;;;;;;5009791;28;19917;-79
2023/02/01 00:23:54;;;;;;;;;;;5.60;1.00;;;;;;5012217;28;19928;-79
2023/02/01 00:26:34;;;;;;;;;;;5.60;1.00;;;;;;5012758;28;19920;-80
2023/02/01 00:29:00;;;;;;;;;;;5.60;1.00;;;;;;5010327;28;20274;-80
2023/02/01 00:31:27;;;;;;;;;;;5.60;1.00;;;;;;5014737;28;19913;-79
2023/02/01 00:33:52;;;;;;;;;;;5.50;1.00;;;;;;5010967;28;19912;-79
2023/02/01 00:36:18;;;;;;;;;;;5.50;1.00;;;;;;5011847;28;19905;-79
2023/02/01 00:38:44;;;;;;;;;;;5.60;1.00;;;;;;5007715;28;20339;-83
2023/02/01 00:41:12;;;;;;;;;;;5.50;1.00;;;;;;5012146;28;19905;-84
2023/02/01 00:43:38;;;;;;;;;;;5.50;1.00;;;;;;5009667;28;19905;-82
2023/02/01 00:46:04;;;;;;;;;;;5.60;1.00;;;;;;5008864;28;19906;-81
2023/02/01 00:48:31;;;;;;;;;;;5.50;1.00;;;;;;5011276;28;20347;-83
2023/02/01 00:51:00;;;;;;;;;;;5.50;1.00;;;;;;5011425;28;20366;-79
2023/02/01 00:53:26;;;;;;;;;;;5.50;1.00;;;;;;5010109;28;20216;-81
2023/02/01 00:55:52;;;;;;;;;;;5.50;1.00;;;;;;5003357;28;19905;-80
2023/02/01 00:58:18;;;;;;;;;;;5.50;1.00;;;;;;5013100;28;19959;-83
2023/02/01 01:00:44;;;;;;;;;;;5.50;1.00;;;;;;5009369;28;19913;-79
2023/02/01 01:03:19;;;;;;;;;;;5.60;1.00;;;;;;5011032;28;19905;-80
2023/02/01 01:05:48;;;;;;;;;;;5.60;1.00;;;;;;5010069;28;19905;-78
2023/02/01 01:08:14;;;;;;;;;;;5.60;1.00;;;;;;5010606;28;19909;-79
2023/02/01 01:10:40;;;;;;;;;;;5.60;1.00;;;;;;5011939;28;19901;-79
2023/02/01 01:13:07;;;;;;;;;;;5.70;1.00;;;;;;5010992;28;19920;-80
2023/02/01 01:15:39;;;;;;;;;;;5.70;1.00;;;;;;5011348;28;20353;-79
2023/02/01 01:18:06;;;;;;;;;;;5.70;1.00;;;;;;5010342;28;20338;-78
2023/02/01 01:20:34;;;;;;;;;;;5.70;1.00;;;;;;5011911;28;20339;-79
2023/02/01 01:23:00;;;;;;;;;;;5.70;1.00;;;;;;5010321;28;19905;-78
2023/02/01 01:25:26;;;;;;;;;;;5.60;1.00;;;;;;5019299;28;19905;-80
2023/02/01 01:27:52;;;;;;;;;;;5.60;1.00;;;;;;5011056;28;19901;-79
2023/02/01 01:30:18;;;;;;;;;;;5.70;1.00;;;;;;5009307;28;19906;-79
2023/02/01 01:32:44;;;;;;;;;;;5.70;1.00;;;;;;5001959;28;19909;-78
2023/02/01 01:35:10;;;;;;;;;;;5.70;1.00;;;;;;5006358;28;20267;-80
2023/02/01 01:37:37;;;;;;;;;;;5.70;1.00;;;;;;5014361;28;19944;-80
2023/02/01 01:40:04;;;;;;;;;;;5.70;1.00;;;;;;5022702;28;20278;-80
2023/02/01 01:42:30;;;;;;;;;;;5.70;1.00;;;;;;5011250;28;20347;-78
2023/02/01 01:44:59;;;;;;;;;;;5.70;1.00;;;;;;5018812;28;19917;-79
2023/02/01 01:47:29;;;;;;;;;;;5.70;1.00;;;;;;5032192;28;19901;-80
2023/02/01 01:49:55;;;;;;;;;;;5.70;1.00;;;;;;5030763;28;19908;-79
2023/02/01 01:52:21;;;;;;;;;;;5.70;1.00;;;;;;5021696;28;19914;-79
2023/02/01 01:54:48;;;;;;;;;;;5.70;1.00;;;;;;5012265;28;19917;-81
2023/02/01 01:57:18;;;;;;;;;;;5.80;1.00;;;;;;5014060;28;19901;-80
2023/02/01 01:59:48;;;;;;;;;;;5.80;1.00;;;;;;5003034;28;20354;-79
2023/02/01 02:02:14;;;;;;;;;;;5.70;1.00;;;;;;5010027;28;19925;-79
2023/02/01 02:04:40;;;;;;;;;;;5.70;1.00;;;;;;4981889;28;19906;-80
2023/02/01 02:07:11;;;;;;;;;;;5.70;1.00;;;;;;5009244;28;19901;-81
2023/02/01 02:09:37;;;;;;;;;;;5.70;1.00;;;;;;5009180;28;19906;-80
2023/02/01 02:12:04;;;;;;;;;;;5.70;1.00;;;;;;5009197;28;20007;-79
2023/02/01 02:14:30;;;;;;;;;;;5.70;1.00;;;;;;5011047;28;19918;-79
2023/02/01 02:17:08;;;;;;;;;;;5.70;1.00;;;;;;5005493;28;19906;-79
2023/02/01 02:19:34;;;;;;;;;;;5.60;1.00;;;;;;4995772;28;19905;-79
2023/02/01 02:22:03;;;;;;;;;;;5.60;1.00;;;;;;5009947;28;19932;-78
2023/02/01 02:24:45;;;;;;;;;;;5.60;1.00;;;;;;5011192;28;20343;-79
2023/02/01 02:27:24;;;;;;;;;;;5.60;1.00;;;;;;5006321;28;19905;-78
2023/02/01 02:29:55;;;;;;;;;;;5.60;1.00;;;;;;5005421;28;19912;-79
2023/02/01 02:32:21;;;;;;;;;;;5.60;1.00;;;;;;5005986;28;20381;-81
2023/02/01 02:34:52;;;;;;;;;;;5.60;1.00;;;;;;5011926;28;19909;-81
2023/02/01 02:37:24;;;;;;;;;;;5.60;1.00;;;;;;5005109;28;19905;-82
2023/02/01 02:39:56;;;;;;;;;;;5.60;1.00;;;;;;5025196;28;19905;-82
2023/02/01 02:48:19;;;;;;;;;;;5.50;1.00;;;;;;5005073;28;19932;-82
2023/02/01 03:04:57;;;;;;;;;;;5.60;1.00;;;;;;5000969;28;19910;-79
2023/02/01 03:07:44;;;;;;;;;;;5.50;1.00;;;;;;5007003;28;19916;-80
2023/02/01 03:10:16;;;;;;;;;;;5.60;1.00;;;;;;5010966;28;19910;-79
2023/02/01 03:12:55;;;;;;;;;;;5.60;1.00;;;;;;5010697;28;19913;-79
2023/02/01 03:15:44;;;;;;;;;;;5.60;1.00;;;;;;5009590;28;19913;-79
2023/02/01 03:18:14;;;;;;;;;;;5.60;1.00;;;;;;5002538;28;20387;-82
2023/02/01 03:20:41;;;;;;;;;;;5.60;1.00;;;;;;5014042;28;19909;-78
2023/02/01 03:23:08;;;;;;;;;;;5.70;1.00;;;;;;5007088;28;19917;-79
2023/02/01 03:25:35;;;;;;;;;;;5.70;1.00;;;;;;5013423;28;19912;-81
2023/02/01 03:28:03;;;;;;;;;;;5.60;1.00;;;;;;5007294;28;20256;-79
2023/02/01 03:30:32;;;;;;;;;;;5.70;1.00;;;;;;5007779;28;19905;-78
2023/02/01 03:33:00;;;;;;;;;;;5.60;1.00;;;;;;5008872;28;19913;-80
2023/02/01 03:35:52;;;;;;;;;;;5.60;1.00;;;;;;4997190;28;19917;-79
2023/02/01 03:38:21;;;;;;;;;;;5.60;1.00;;;;;;5009638;28;19920;-79
2023/02/01 03:40:51;;;;;;;;;;;5.70;1.00;;;;;;5012818;28;19913;-80
2023/02/01 03:43:18;;;;;;;;;;;5.70;1.00;;;;;;5006289;28;20386;-80
2023/02/01 03:45:48;;;;;;;;;;;5.60;1.00;;;;;;5012362;28;20419;-79
2023/02/01 03:48:14;;;;;;;;;;;5.60;1.00;;;;;;4993512;28;19918;-81
2023/02/01 03:50:44;;;;;;;;;;;5.60;1.00;;;;;;5012880;28;19909;-80
2023/02/01 03:53:14;;;;;;;;;;;5.60;1.00;;;;;;5011070;28;19917;-82
2023/02/01 03:55:42;;;;;;;;;;;5.70;1.00;;;;;;5011924;28;19913;-82
2023/02/01 03:58:16;;;;;;;;;;;5.60;1.00;;;;;;5012412;28;19917;-82
2023/02/01 04:00:49;;;;;;;;;;;5.70;1.00;;;;;;5007427;28;19917;-81
2023/02/01 04:03:15;;;;;;;;;;;5.70;1.00;;;;;;5012327;28;19932;-82
2023/02/01 04:05:41;;;;;;;;;;;5.70;1.00;;;;;;5008154;28;19914;-80
2023/02/01 04:08:08;;;;;;;;;;;5.70;1.00;;;;;;5012362;28;20264;-82
2023/02/01 04:10:34;;;;;;;;;;;5.80;1.00;;;;;;5010641;28;20000;-82
2023/02/01 04:13:00;;;;;;;;;;;5.80;1.00;;;;;;5008948;28;19917;-81
2023/02/01 04:15:26;;;;;;;;;;;5.80;1.00;;;;;;5002678;28;19913;-81
2023/02/01 04:17:52;;;;;;;;;;;5.80;1.00;;;;;;5008501;28;19916;-80
2023/02/01 04:20:19;;;;;;;;;;;5.80;1.00;;;;;;5013005;28;20400;-80
2023/02/01 04:22:45;;;;;;;;;;;5.80;1.00;;;;;;5011486;28;19913;-80
2023/02/01 04:25:11;;;;;;;;;;;5.80;1.00;;;;;;4993578;28;19906;-80
2023/02/01 04:27:37;;;;;;;;;;;5.70;1.00;;;;;;4984510;28;20074;-81
2023/02/01 04:30:04;;;;;;;;;;;5.80;1.00;;;;;;4994694;28;19920;-80
2023/02/01 04:32:29;;;;;;;;;;;5.80;1.00;;;;;;5011148;28;19921;-80
2023/02/01 04:34:55;;;;;;;;;;;5.80;1.00;;;;;;5006805;28;19913;-80
2023/02/01 04:37:21;;;;;;;;;;;5.80;1.00;;;;;;5009768;28;19905;-80
2023/02/01 04:39:47;;;;;;;;;;;5.70;1.00;;;;;;5011421;28;19917;-79
2023/02/01 04:42:13;;;;;;;;;;;5.80;1.00;;;;;;4996256;28;19910;-80
2023/02/01 04:44:41;;;;;;;;;;;5.80;1.00;;;;;;5008586;28;19910;-80
2023/02/01 04:47:07;;;;;;;;;;;5.80;1.00;;;;;;5009457;28;19928;-81
2023/02/01 04:49:33;;;;;;;;;;;5.80;1.00;;;;;;5006752;28;20271;-77
2023/02/01 04:51:59;;;;;;;;;;;5.80;1.00;;;;;;5008964;28;19917;-79
2023/02/01 04:54:25;;;;;;;;;;;5.90;1.00;;;;;;5010698;28;19913;-79
2023/02/01 04:56:51;;;;;;;;;;;5.90;1.00;;;;;;5010870;28;19912;-79
2023/02/01 04:59:17;;;;;;;;;;;5.90;1.00;;;;;;5021967;28;20362;-79
2023/02/01 05:01:43;;;;;;;;;;;5.90;1.00;;;;;;5008705;28;19925;-79
2023/02/01 05:04:09;;;;;;;;;;;5.90;1.00;;;;;;5009225;28;20015;-78
2023/02/01 05:06:35;;;;;;;;;;;5.90;1.00;;;;;;5011211;28;19956;-78
2023/02/01 05:09:01;;;;;;;;;;;5.90;1.00;;;;;;5018243;28;19910;-79
2023/02/01 05:14:12;;;;;;;;;;;5.90;1.00;;;;;;5008778;28;20271;-80
2023/02/01 05:16:38;;;;;;;;;;;5.80;1.00;;;;;;5011427;28;19910;-79
2023/02/01 05:19:04;;;;;;;;;;;5.80;1.00;;;;;;5012099;28;19987;-82
2023/02/01 05:21:30;;;;;;;;;;;5.80;1.00;;;;;;5004360;28;20370;-75
2023/02/01 05:24:13;;;;;;;;;;;5.80;1.00;;;;;;5007982;28;19905;-75
2023/02/01 05:26:40;;;;;;;;;;;5.90;1.00;;;;;;5012613;28;20286;-74
2023/02/01 05:29:07;;;;;;;;;;;5.90;1.00;;;;;;5007379;28;19909;-75
2023/02/01 05:31:33;;;;;;;;;;;5.80;1.00;;;;;;5008589;28;20372;-76
2023/02/01 05:33:59;;;;;;;;;;;5.60;1.00;;;;;;5010470;28;19914;-77
2023/02/01 05:36:25;;;;;;;;;;;5.50;5.00;;;;;;5011340;28;19960;-77
2023/02/01 05:38:51;;;;;;;;;;;5.40;14.00;;;;;;5006015;28;19913;-76
2023/02/01 05:41:17;;;;;;;;;;;5.30;24.00;;;;;;5005971;28;19933;-76
2023/02/01 05:43:43;;;;;;;;;;;5.20;33.60;;;;;;5010321;28;19916;-76
2023/02/01 05:46:12;;;;;;;;;;;5.20;36.60;;;;;;5010872;28;20090;-77
2023/02/01 05:48:39;;;;;;;;;;;5.20;42.30;;;;;;5007690;28;19909;-78
2023/02/01 05:51:05;;;;;;;;;;;5.10;52.80;;;;;;5004436;28;19914;-77
2023/02/01 05:53:31;;;;;;;;;;;5.10;71.60;;;;;;5011770;28;19917;-75
2023/02/01 05:55:57;;;;;;;;;;;5.10;87.50;;;;;;5003715;28;19933;-76
2023/02/01 05:58:23;;;;;;;;;;;5.10;94.70;;;;;;5010390;28;19996;-77
2023/02/01 06:00:49;;;;;;;;;;;5.10;99.60;;;;;;5005594;28;19922;-79
2023/02/01 06:03:15;;;;;;;;;;;5.00;99.90;;;;;;5009943;28;19910;-76
2023/02/01 06:05:43;;;;;;;;;;;5.00;99.90;;;;;;5008864;28;19918;-75
2023/02/01 06:08:09;;;;;;;;;;;5.00;99.90;;;;;;5008715;28;19905;-76
2023/02/01 06:10:35;;;;;;;;;;;5.00;99.90;;;;;;5009789;28;19909;-75
2023/02/01 06:13:02;;;;;;;;;;;5.00;99.90;;;;;;5014763;28;19917;-76
2023/02/01 06:15:29;;;;;;;;;;;5.10;99.90;;;;;;5017612;28;19913;-76
2023/02/01 06:17:55;;;;;;;;;;;5.10;99.90;;;;;;5011785;28;20354;-75
2023/02/01 06:20:20;;;;;;;;;;;5.00;99.90;;;;;;5017183;28;19959;-75
2023/02/01 06:22:46;;;;;;;;;;;5.10;99.90;;;;;;5018864;28;20316;-75
2023/02/01 06:25:13;;;;;;;;;;;5.00;99.90;;;;;;5016828;28;19910;-75
2023/02/01 06:27:39;;;;;;;;;;;5.00;99.90;;;;;;5012838;28;19916;-75
2023/02/01 06:30:06;;;;;;;;;;;5.00;99.90;;;;;;5011754;28;19918;-75
2023/02/01 06:32:32;;;;;;;;;;;5.00;99.90;;;;;;5012324;28;19913;-75
2023/02/01 06:34:59;;;;;;;;;;;5.00;99.90;;;;;;5010341;28;19914;-76
2023/02/01 06:37:27;;;;;;;;;;;5.00;99.90;;;;;;5014128;28;19909;-74
2023/02/01 06:39:53;;;;;;;;;;;5.00;99.90;;;;;;5010794;28;19906;-75
2023/02/01 06:42:19;;;;;;;;;;;5.00;99.40;;;;;;5014561;28;19996;-74
2023/02/01 06:44:45;;;;;;;;;;;5.10;97.00;;;;;;5011075;28;19910;-75
2023/02/01 06:47:11;;;;;;;;;;;5.10;91.40;;;;;;5014953;28;19913;-74
2023/02/01 06:49:37;;;;;;;;;;;5.10;86.20;;;;;;5013600;28;19906;-75
2023/02/01 06:52:03;;;;;;;;;;;5.00;87.20;;;;;;5014623;28;19920;-75
2023/02/01 06:54:32;;;;;;;;;;;5.10;77.20;;;;;;5014462;28;19914;-75
2023/02/01 06:56:58;;;;;;;;;;;5.10;66.30;;;;;;5011716;28;20255;-75
2023/02/01 06:59:24;;;;;;;;;;;5.20;58.10;;;;;;5012940;28;19909;-76
2023/02/01 07:01:50;;;;;;;;;;;5.20;47.20;;;;;;5010563;28;19918;-75
2023/02/01 07:04:16;;;;;;;;;;;5.30;39.20;;;;;;5012467;28;19909;-75
2023/02/01 07:06:43;;;;;;;;;;;5.30;33.80;;;;;;5013494;28;20136;-75
2023/02/01 07:09:09;;;;;;;;;;;5.30;26.20;;;;;;5012479;28;19925;-74
2023/02/01 07:11:35;;;;;;;;;;;5.30;13.90;;;;;;5013423;28;19920;-74
2023/02/01 07:14:01;;;;;;;;;;;5.40;4.90;;;;;;5007530;28;19901;-75
2023/02/01 07:16:27;;;;;;;;;;;5.40;1.00;;;;;;5013056;28;19920;-73
2023/02/01 07:18:53;;;;;;;;;;;5.40;1.00;;;;;;5001632;28;20282;-75
2023/02/01 07:21:19;;;;;;;;;;;5.40;1.00;;;;;;5009849;28;19909;-74
2023/02/01 07:23:45;;;;;;;;;;;5.40;1.00;;;;;;5013556;28;20377;-75
2023/02/01 07:26:13;;;;;;;;;;;5.30;1.00;;;;;;5008367;28;19941;-75
2023/02/01 07:28:39;;;;;;;;;;;5.30;1.00;;;;;;5009629;28;19909;-74
2023/02/01 07:31:05;;;;;;;;;;;5.40;1.00;;;;;;5009570;28;20278;-74
2023/02/01 07:33:32;;;;;;;;;;;5.30;1.00;;;;;;5014068;28;19920;-74
2023/02/01 07:36:00;;;;;;;;;;;5.20;1.00;;;;;;5012089;28;19913;-74
2023/02/01 07:38:26;;;;;;;;;;;5.20;1.00;;;;;;5012658;28;19912;-75
2023/02/01 07:40:56;;;;;;;;;;;5.20;1.00;;;;;;5012094;28;20346;-77
2023/02/01 07:43:22;;;;;;;;;;;5.10;1.00;;;;;;5013181;28;19916;-75
2023/02/01 07:45:50;;;;;;;;;;;5.20;1.00;;;;;;5011586;28;20310;-75
2023/02/01 07:48:16;;;;;;;;;;;5.10;1.00;;;;;;5011000;28;20362;-75
2023/02/01 07:50:42;;;;;;;;;;;5.10;1.00;;;;;;5008728;28;20011;-76
2023/02/01 07:53:08;;;;;;;;;;;5.10;1.00;;;;;;5012089;28;20374;-74
2023/02/01 07:55:37;;;;;;;;;;;5.10;1.00;;;;;;5010104;28;19948;-76
2023/02/01 07:58:03;;;;;;;;;;;5.20;1.00;;;;;;5012208;28;19910;-76
2023/02/01 08:03:13;;;;;;;;;;;5.30;1.00;;;;;;5003482;28;19920;-76
2023/02/01 08:05:39;;;;;;;;;;;5.40;1.00;;;;;;5013609;28;19909;-76
2023/02/01 08:08:05;;;;;;;;;;;5.50;1.00;;;;;;5011221;28;19905;-75
2023/02/01 08:10:31;;;;;;;;;;;5.50;1.00;;;;;;5010308;28;19909;-76
2023/02/01 08:12:58;;;;;;;;;;;5.50;1.00;;;;;;5010826;28;19909;-76
2023/02/01 08:15:24;;;;;;;;;;;5.60;1.00;;;;;;5013700;28;19913;-75
2023/02/01 08:17:50;;;;;;;;;;;5.60;1.00;;;;;;5012179;28;20335;-76
2023/02/01 08:20:17;;;;;;;;;;;5.70;1.00;;;;;;5008559;28;19917;-76
2023/02/01 08:22:43;;;;;;;;;;;5.70;1.00;;;;;;5009521;28;19910;-76
2023/02/01 08:25:09;;;;;;;;;;;5.70;1.00;;;;;;5009774;28;20294;-76
2023/02/01 08:27:36;;;;;;;;;;;5.70;1.00;;;;;;5009887;28;19916;-75
2023/02/01 08:30:03;;;;;;;;;;;5.70;1.00;;;;;;5009692;28;19917;-76
2023/02/01 08:32:29;;;;;;;;;;;5.80;1.00;;;;;;5008080;28;19905;-76
2023/02/01 08:34:54;;;;;;;;;;;5.90;1.00;;;;;;5011667;28;19967;-77
2023/02/01 08:37:22;;;;;;;;;;;5.90;1.00;;;;;;5001614;28;20298;-76
2023/02/01 08:39:49;;;;;;;;;;;6.00;1.00;;;;;;5011336;28;19920;-74
2023/02/01 08:45:02;;;;;;;;;;;6.10;1.00;;;;;;5009055;28;19910;-75
2023/02/01 08:47:28;;;;;;;;;;;6.10;1.00;;;;;;5010361;28;20347;-75
2023/02/01 08:49:54;;;;;;;;;;;6.10;1.00;;;;;;5010231;28;19909;-75
2023/02/01 08:52:20;;;;;;;;;;;6.20;1.00;;;;;;5011972;28;20386;-74
2023/02/01 08:54:46;;;;;;;;;;;6.20;1.00;;;;;;5008256;28;19924;-75
2023/02/01 08:57:13;;;;;;;;;;;6.20;1.00;;;;;;5010198;28;19920;-75
2023/02/01 08:59:39;;;;;;;;;;;6.30;1.00;;;;;;5010245;28;19909;-75
2023/02/01 09:02:05;;;;;;;;;;;6.30;1.00;;;;;;5007424;28;20411;-76
2023/02/01 09:04:31;;;;;;;;;;;6.30;1.00;;;;;;5011525;28;19913;-75
2023/02/01 09:06:57;;;;;;;;;;;6.30;1.00;;;;;;5006719;28;19932;-74
2023/02/01 09:09:23;;;;;;;;;;;6.40;1.00;;;;;;5009574;28;19916;-75
2023/02/01 09:11:50;;;;;;;;;;;6.50;1.00;;;;;;5007120;28;19909;-76
2023/02/01 09:14:16;;;;;;;;;;;6.60;1.00;;;;;;5008241;28;20354;-77
2023/02/01 09:16:42;;;;;;;;;;;6.70;1.00;;;;;;5007053;28;19921;-76
2023/02/01 09:19:08;;;;;;;;;;;6.70;1.00;;;;;;5007616;28;19910;-78
2023/02/01 09:21:34;;;;;;;;;;;6.80;1.00;;;;;;5019137;28;20286;-76
2023/02/01 09:24:00;;;;;;;;;;;6.70;1.00;;;;;;5016916;28;19913;-76
2023/02/01 09:26:27;;;;;;;;;;;6.70;1.00;;;;;;5009544;28;19916;-76
2023/02/01 09:28:53;;;;;;;;;;;6.60;1.00;;;;;;5007937;28;19916;-76
2023/02/01 09:31:19;;;;;;;;;;;6.60;1.00;;;;;;5007424;28;19909;-75
2023/02/01 09:33:45;;;;;;;;;;;6.70;1.00;;;;;;5010928;28;19913;-75
2023/02/01 09:36:11;;;;;;;;;;;6.70;1.00;;;;;;5008436;28;20362;-75
2023/02/01 09:38:37;;;;;;;;;;;6.80;1.00;;;;;;5009639;28;19921;-74
2023/02/01 09:41:07;;;;;;;;;;;6.90;99.90;;;;;;5007478;28;19906;-73
2023/02/01 09:43:39;;;;;;;;;;;6.90;99.90;;;;;;5009396;28;20359;-74
2023/02/01 09:46:15;;;;;;;;;;;6.90;99.90;;;;;;5000357;28;19916;-75
2023/02/01 09:48:42;;;;;;;;;;;6.90;99.90;;;;;;5009411;28;19910;-73
2023/02/01 09:51:14;;;;;;;;;;;6.90;99.90;;;;;;5007742;28;20294;-72
2023/02/01 09:53:42;;;;;;;;;;;7.00;99.90;;;;;;5008571;28;20310;-74
2023/02/01 09:56:17;;;;;;;;;;;6.90;99.90;;;;;;5008849;28;20278;-72
2023/02/01 09:59:04;;;;;;;;;;;6.90;99.90;;;;;;5010929;28;20290;-73
2023/02/01 10:01:31;;;;;;;;;;;6.90;99.90;;;;;;4997569;28;19918;-74
2023/02/01 10:04:05;;;;;;;;;;;6.90;99.90;;;;;;5005290;28;19916;-74
2023/02/01 10:06:50;;;;;;;;;;;7.00;99.90;;;;;;5008385;28;19909;-74
2023/02/01 10:09:16;;;;;;;;;;;7.00;99.90;;;;;;5001371;28;19909;-73
2023/02/01 10:12:02;;;;;;;;;;;7.10;99.90;;;;;;5009924;28;20312;-73
2023/02/01 10:14:28;;;;;;;;;;;7.10;99.90;;;;;;5007066;28;20382;-73
2023/02/01 10:17:08;;;;;;;;;;;7.00;99.90;;;;;;5007595;28;19910;-76
2023/02/01 10:19:54;;;;;;;;;;;7.10;99.90;;;;;;5011127;28;19913;-74
2023/02/01 10:22:26;;;;;;;;;;;7.10;99.90;;;;;;5007424;28;19909;-74
2023/02/01 10:24:58;;;;;;;;;;;7.10;99.90;;;;;;5002727;28;19921;-76
2023/02/01 10:27:29;;;;;;;;;;;7.10;99.90;;;;;;5009905;28;20311;-75
2023/02/01 10:29:56;;;;;;;;;;;7.10;99.90;;;;;;5007148;28;19913;-75
2023/02/01 10:32:34;;;;;;;;;;;7.10;99.90;;;;;;5004639;28;19910;-73
2023/02/01 10:35:12;;;;;;;;;;;7.20;99.90;;;;;;5007609;28;19925;-74
2023/02/01 10:37:40;;;;;;;;;;;7.10;99.90;;;;;;5014644;28;19920;-73
2023/02/01 10:40:16;;;;;;;;;;;7.20;99.90;;;;;;5014694;28;19924;-74
2023/02/01 10:42:42;;;;;;;;;;;7.10;99.90;;;;;;5011130;28;19917;-76
2023/02/01 10:45:20;;;;;;;;;;;7.10;99.90;;;;;;5006741;28;19905;-75
2023/02/01 10:47:47;;;;;;;;;;;7.20;99.90;;;;;;5007711;28;19909;-73
2023/02/01 10:50:29;;;;;;;;;;;7.20;99.90;;;;;;5010967;28;19916;-75
2023/02/01 10:53:18;;;;;;;;;;;7.20;99.90;;;;;;5008754;28;20394;-75
2023/02/01 10:55:44;;;;;;;;;;;7.20;99.90;;;;;;5012486;28;20311;-73
2023/02/01 10:58:18;;;;;;;;;;;7.20;99.90;;;;;;5012335;28;19909;-76
2023/02/01 11:00:46;;;;;;;;;;;7.20;99.90;;;;;;5013079;28;19928;-73
2023/02/01 11:03:27;;;;;;;;;;;7.20;99.90;;;;;;5006879;28;19909;-75
2023/02/01 11:05:55;;;;;;;;;;;7.20;99.90;;;;;;5012917;28;19909;-75
2023/02/01 11:08:21;;;;;;;;;;;7.20;99.90;;;;;;5010552;28;20282;-73
2023/02/01 11:10:56;;;;;;;;;;;7.20;99.90;;;;;;5012661;28;19909;-76
2023/02/01 11:13:27;;;;;;;;;;;7.20;99.90;;;;;;5008607;28;19924;-72
2023/02/01 11:15:54;;;;;;;;;;;7.10;99.90;;;;;;5011518;28;19913;-76
2023/02/01 11:18:26;;;;;;;;;;;7.20;99.90;;;;;;5007513;28;19910;-73
2023/02/01 11:20:52;;;;;;;;;;;7.20;99.90;;;;;;5007768;28;19932;-75
2023/02/01 11:23:20;;;;;;;;;;;7.20;99.90;;;;;;5009958;28;19913;-77
2023/02/01 11:25:49;;;;;;;;;;;7.30;99.90;;;;;;5011833;28;19909;-73
2023/02/01 11:28:16;;;;;;;;;;;7.30;99.90;;;;;;5011564;28;19910;-75
2023/02/01 11:30:43;;;;;;;;;;;7.30;99.90;;;;;;5007341;28;20409;-76
2023/02/01 11:33:13;;;;;;;;;;;7.20;99.90;;;;;;4991117;28;19913;-76
2023/02/01 11:35:40;;;;;;;;;;;7.20;99.90;;;;;;5009542;28;19913;-75
2023/02/01 11:38:11;;;;;;;;;;;7.30;99.90;;;;;;5025481;28;19910;-76
2023/02/01 11:40:38;;;;;;;;;;;7.20;99.90;;;;;;5010193;28;19909;-74
2023/02/01 11:43:09;;;;;;;;;;;7.20;99.90;;;;;;5011340;28;20375;-74
2023/02/01 11:45:37;;;;;;;;;;;7.20;99.90;;;;;;5012537;28;19916;-73
2023/02/01 11:48:07;;;;;;;;;;;7.30;99.90;;;;;;5013519;28;19969;-75
2023/02/01 11:50:33;;;;;;;;;;;7.30;99.90;;;;;;5016662;28;19916;-74
2023/02/01 11:53:18;;;;;;;;;;;7.40;99.90;;;;;;5010618;28;19913;-73
2023/02/01 11:55:52;;;;;;;;;;;7.40;99.90;;;;;;5010522;28;19917;-73
2023/02/01 11:58:18;;;;;;;;;;;7.40;99.90;;;;;;5012060;28;19917;-72
2023/02/01 12:00:59;;;;;;;;;;;7.40;99.90;;;;;;5011449;28;20196;-73
2023/02/01 12:03:32;;;;;;;;;;;7.40;99.90;;;;;;5007262;28;19920;-76
2023/02/01 12:06:10;;;;;;;;;;;7.40;99.90;;;;;;5012320;28;19916;-76
2023/02/01 12:08:45;;;;;;;;;;;7.30;99.90;;;;;;5010377;28;19910;-75
2023/02/01 12:11:30;;;;;;;;;;;7.20;99.90;;;;;;5008055;28;19909;-74
2023/02/01 12:14:17;;;;;;;;;;;7.20;99.90;;;;;;5008547;28;19917;-75
2023/02/01 12:16:43;;;;;;;;;;;7.20;99.90;;;;;;5002384;28;19920;-76
2023/02/01 12:19:15;;;;;;;;;;;7.10;99.90;;;;;;5009425;28;19909;-75
2023/02/01 12:21:46;;;;;;;;;;;7.10;99.90;;;;;;5012437;28;19909;-75
2023/02/01 12:24:37;;;;;;;;;;;7.10;99.90;;;;;;5007112;28;19921;-78
2023/02/01 12:27:15;;;;;;;;;;;7.10;99.90;;;;;;5007038;28;19909;-75
2023/02/01 12:29:40;;;;;;;;;;;7.10;99.90;;;;;;5005171;28;19916;-75
2023/02/01 12:32:11;;;;;;;;;;;7.10;99.90;;;;;;5006010;28;20363;-77
2023/02/01 12:34:39;;;;;;;;;;;7.10;99.90;;;;;;5009795;28;19917;-74
2023/02/01 12:37:05;;;;;;;;;;;7.10;99.90;;;;;;5006863;28;19910;-75
2023/02/01 12:39:31;;;;;;;;;;;7.10;99.90;;;;;;5009658;28;19991;-76
2023/02/01 12:42:08;;;;;;;;;;;7.10;99.90;;;;;;5011659;28;19913;-75
2023/02/01 12:44:41;;;;;;;;;;;7.10;99.90;;;;;;5005416;28;19914;-75
2023/02/01 12:47:16;;;;;;;;;;;7.10;99.90;;;;;;5011035;28;19924;-75
2023/02/01 12:49:42;;;;;;;;;;;7.10;99.90;;;;;;5016466;28;19916;-76
2023/02/01 12:52:15;;;;;;;;;;;7.10;99.90;;;;;;5004825;28;20205;-75
2023/02/01 12:54:50;;;;;;;;;;;7.10;99.90;;;;;;5007443;28;19918;-75
2023/02/01 12:57:18;;;;;;;;;;;7.10;99.90;;;;;;5011045;28;19913;-76
2023/02/01 12:59:49;;;;;;;;;;;7.20;99.90;;;;;;5003045;28;19913;-77
2023/02/01 13:02:24;;;;;;;;;;;7.10;99.90;;;;;;5008098;28;19917;-75
2023/02/01 13:05:03;;;;;;;;;;;7.10;99.90;;;;;;5007200;28;19916;-73
2023/02/01 13:07:32;;;;;;;;;;;7.10;99.90;;;;;;5008953;28;19909;-78
2023/02/01 13:10:04;;;;;;;;;;;7.10;99.90;;;;;;5008948;28;19917;-76
2023/02/01 13:12:35;;;;;;;;;;;7.10;99.90;;;;;;5009402;28;19916;-76
2023/02/01 13:15:04;;;;;;;;;;;7.10;99.90;;;;;;5006428;28;19913;-75
2023/02/01 13:17:32;;;;;;;;;;;7.20;99.90;;;;;;5009369;28;20310;-74
2023/02/01 13:20:04;;;;;;;;;;;7.10;99.90;;;;;;5009258;28;19929;-75
2023/02/01 13:22:30;;;;;;;;;;;7.10;99.90;;;;;;5010953;28;19909;-75
2023/02/01 13:24:59;;;;;;;;;;;7.10;99.90;;;;;;5009981;28;19924;-75
2023/02/01 13:27:31;;;;;;;;;;;7.10;99.90;;;;;;5006612;28;20108;-75
2023/02/01 13:29:59;;;;;;;;;;;7.10;99.90;;;;;;5006792;28;19909;-74
2023/02/01 13:32:34;;;;;;;;;;;7.10;99.90;;;;;;5009853;28;20153;-72
2023/02/01 13:35:03;;;;;;;;;;;7.10;99.90;;;;;;5004074;28;19913;-74
2023/02/01 13:37:29;;;;;;;;;;;7.20;99.90;;;;;;5010522;28;19913;-75
2023/02/01 13:39:58;;;;;;;;;;;7.30;99.90;;;;;;5006982;28;19909;-77
2023/02/01 13:42:29;;;;;;;;;;;7.40;99.90;;;;;;5009127;28;19916;-75
2023/02/01 13:45:12;;;;;;;;;;;7.40;99.90;;;;;;5014352;28;19920;-76
2023/02/01 13:47:40;;;;;;;;;;;7.40;99.90;;;;;;5006812;28;19910;-76
2023/02/01 13:50:25;;;;;;;;;;;7.40;99.90;;;;;;5008163;28;19925;-77
2023/02/01 13:52:56;;;;;;;;;;;7.40;99.90;;;;;;5008724;28;19917;-76
2023/02/01 13:55:22;;;;;;;;;;;7.40;99.90;;;;;;5005306;28;19918;-73
2023/02/01 13:57:49;;;;;;;;;;;7.40;99.90;;;;;;5010292;28;20385;-73
2023/02/01 14:00:25;;;;;;;;;;;7.40;99.90;;;;;;5004832;28;19910;-74
2023/02/01 14:02:51;;;;;;;;;;;7.40;99.90;;;;;;5006919;28;19910;-75
2023/02/01 14:05:23;;;;;;;;;;;7.50;99.90;;;;;;5006844;28;19917;-76
2023/02/01 14:08:10;;;;;;;;;;;7.50;99.90;;;;;;5008836;28;19917;-75
2023/02/01 14:10:49;;;;;;;;;;;7.50;99.90;;;;;;5009926;28;19917;-75
2023/02/01 14:13:24;;;;;;;;;;;7.50;99.90;;;;;;5006369;28;19917;-76
2023/02/01 14:16:02;;;;;;;;;;;7.50;99.90;;;;;;5003350;28;19913;-77
2023/02/01 14:18:34;;;;;;;;;;;7.50;99.90;;;;;;5007855;28;19913;-77
2023/02/01 14:21:21;;;;;;;;;;;7.50;99.90;;;;;;5008531;28;19933;-76
2023/02/01 14:23:54;;;;;;;;;;;7.50;99.90;;;;;;5009167;28;19917;-75
2023/02/01 14:26:40;;;;;;;;;;;7.50;99.90;;;;;;5007417;28;19916;-77
2023/02/01 14:29:15;;;;;;;;;;;7.50;99.90;;;;;;5008738;28;19910;-75
2023/02/01 14:31:59;;;;;;;;;;;7.50;99.90;;;;;;5014428;28;19924;-75
2023/02/01 14:34:42;;;;;;;;;;;7.50;99.90;;;;;;5020256;28;19917;-78
2023/02/01 14:37:11;;;;;;;;;;;7.60;99.90;;;;;;5013974;28;19913;-79
2023/02/01 14:39:46;;;;;;;;;;;7.60;99.90;;;;;;5013909;28;19910;-77
2023/02/01 14:42:18;;;;;;;;;;;7.60;99.90;;;;;;5009928;28;19909;-74
2023/02/01 14:44:44;;;;;;;;;;;7.60;99.90;;;;;;5008949;28;19925;-77
2023/02/01 14:47:10;;;;;;;;;;;7.50;99.90;;;;;;5003482;28;19921;-74
2023/02/01 14:49:49;;;;;;;;;;;7.50;99.90;;;;;;5013745;28;20362;-75
2023/02/01 14:52:17;;;;;;;;;;;7.50;99.90;;;;;;5012674;28;19909;-77
2023/02/01 14:54:45;;;;;;;;;;;7.40;99.90;;;;;;5017750;28;19917;-77
2023/02/01 14:57:17;;;;;;;;;;;7.50;99.90;;;;;;5027422;28;19920;-77
2023/02/01 14:59:44;;;;;;;;;;;7.50;99.90;;;;;;5025184;28;19917;-76
2023/02/01 15:02:18;;;;;;;;;;;7.50;99.90;;;;;;5027072;28;19917;-80
2023/02/01 15:04:44;;;;;;;;;;;7.50;99.90;;;;;;5018917;28;19914;-76
2023/02/01 15:07:12;;;;;;;;;;;7.50;99.90;;;;;;5017760;28;20279;-81
2023/02/01 15:09:41;;;;;;;;;;;7.50;99.90;;;;;;5013874;28;19917;-77
2023/02/01 15:12:10;;;;;;;;;;;7.50;99.90;;;;;;5016282;28;19910;-73
2023/02/01 15:14:42;;;;;;;;;;;7.60;99.90;;;;;;5011984;28;19920;-77
2023/02/01 15:17:26;;;;;;;;;;;7.70;99.90;;;;;;5011245;28;19914;-76